createdAt,value
2022-10-25T00:01:25.017Z,26.70
2022-10-25T00:06:32.273Z,23.20
2022-10-25T00:11:39.469Z,24.70
2022-10-25T00:16:47.079Z,29.20
2022-10-25T00:21:54.399Z,22.10
2022-10-25T00:27:02.200Z,22.10
2022-10-25T00:32:09.219Z,17.70
2022-10-25T00:37:16.188Z,23.90
2022-10-25T00:42:25.613Z,24.30
2022-10-25T00:47:44.835Z,19.90
2022-10-25T00:52:57.468Z,20.50
2022-10-25T00:58:08.927Z,21.30
2022-10-25T01:03:17.817Z,24.40
2022-10-25T01:08:25.794Z,20.40
2022-10-25T01:13:32.733Z,20.40
2022-10-25T01:18:46.427Z,21.30
2022-10-25T01:24:14.502Z,25.30
2022-10-25T01:29:45.219Z,18.60
2022-10-25T01:35:00.323Z,15.70
2022-10-25T01:40:17.080Z,18.70
2022-10-25T01:50:36.168Z,19.20
2022-10-25T01:55:50.130Z,16.70
2022-10-25T02:01:07.423Z,17.60
2022-10-25T02:06:23.916Z,19.70
2022-10-25T02:11:33.230Z,19.80
2022-10-25T02:16:46.557Z,23.10
2022-10-25T02:21:56.134Z,22.80
2022-10-25T02:27:06.212Z,24.00
2022-10-25T02:32:13.239Z,24.20
2022-10-25T02:37:20.538Z,21.90
2022-10-25T02:42:27.759Z,22.20
2022-10-25T02:47:34.604Z,26.40
2022-10-25T02:52:41.468Z,29.80
2022-10-25T02:57:48.410Z,28.20
2022-10-25T03:02:55.616Z,29.90
2022-10-25T03:08:02.616Z,24.10
2022-10-25T03:13:09.800Z,24.60
2022-10-25T03:18:17.997Z,27.60
2022-10-25T03:23:25.139Z,24.50
2022-10-25T03:28:33.090Z,24.70
2022-10-25T03:33:40.087Z,22.70
2022-10-25T03:38:47.047Z,24.50
2022-10-25T03:43:54.033Z,27.60
2022-10-25T03:49:00.874Z,21.60
2022-10-25T03:54:07.881Z,28.40
2022-10-25T03:59:15.159Z,27.00
2022-10-25T04:04:22.736Z,22.20
2022-10-25T04:09:29.908Z,23.50
2022-10-25T04:14:37.066Z,21.00
2022-10-25T04:19:44.045Z,19.60
2022-10-25T04:24:51.073Z,19.80
2022-10-25T04:29:58.335Z,21.50
2022-10-25T04:35:06.214Z,18.30
2022-10-25T04:40:14.597Z,19.30
2022-10-25T04:45:21.630Z,19.40
2022-10-25T04:50:28.446Z,18.00
2022-10-25T04:55:36.189Z,23.30
2022-10-25T05:00:43.303Z,19.00
2022-10-25T05:05:50.416Z,19.80
2022-10-25T05:10:58.008Z,21.10
2022-10-25T05:16:05.891Z,20.60
2022-10-25T05:21:13.702Z,18.30
2022-10-25T05:26:22.847Z,17.90
2022-10-25T05:31:31.928Z,20.40
2022-10-25T05:36:38.998Z,19.10
2022-10-25T05:41:45.891Z,15.60
2022-10-25T05:46:53.099Z,19.10
2022-10-25T05:52:00.114Z,16.80
2022-10-25T05:57:07.080Z,21.50
2022-10-25T06:02:14.075Z,19.00
2022-10-25T06:07:22.235Z,19.00
2022-10-25T06:12:29.598Z,19.30
2022-10-25T06:17:36.775Z,20.50
2022-10-25T06:22:44.335Z,25.20
2022-10-25T06:27:51.716Z,20.00
2022-10-25T06:33:00.455Z,18.70
2022-10-25T06:38:07.760Z,20.40
2022-10-25T06:43:14.950Z,17.10
2022-10-25T06:48:22.883Z,22.60
2022-10-25T06:53:33.029Z,17.90
2022-10-25T06:58:40.581Z,17.50
2022-10-25T07:03:47.645Z,18.70
2022-10-25T07:08:58.991Z,19.30
2022-10-25T07:14:06.084Z,20.60
2022-10-25T07:19:13.257Z,15.40
2022-10-25T07:24:21.107Z,17.20
2022-10-25T07:29:28.098Z,16.70
2022-10-25T07:34:34.977Z,14.30
2022-10-25T07:39:41.977Z,13.10
2022-10-25T07:44:48.771Z,12.70
2022-10-25T07:49:57.764Z,10.30
2022-10-25T07:55:04.735Z,10.40
2022-10-25T08:00:13.386Z,8.50
2022-10-25T08:05:20.452Z,8.40
2022-10-25T08:10:28.153Z,8.70
2022-10-25T08:21:20.629Z,6.90
2022-10-25T08:26:48.020Z,9.40
2022-10-25T08:31:55.029Z,6.70
2022-10-25T08:37:03.549Z,8.30
2022-10-25T08:42:17.163Z,7.00
2022-10-25T08:57:19.745Z,4.80
2022-10-25T09:02:35.609Z,6.20
2022-10-25T09:07:55.049Z,5.20
2022-10-25T09:13:11.153Z,4.90
2022-10-25T09:18:20.627Z,6.80
2022-10-25T09:23:31.859Z,5.30
2022-10-25T09:28:51.598Z,5.70
2022-10-25T09:34:04.482Z,6.20
2022-10-25T09:39:18.392Z,7.50
2022-10-25T09:44:37.460Z,7.50
2022-10-25T09:49:54.589Z,10.30
2022-10-25T09:55:16.051Z,4.90
2022-10-25T10:00:23.587Z,6.60
2022-10-25T10:05:32.166Z,5.50
2022-10-25T10:10:40.129Z,5.60
2022-10-25T10:21:25.360Z,5.10
2022-10-25T10:26:35.559Z,4.30
2022-10-25T10:31:44.778Z,4.90
2022-10-25T10:37:04.677Z,4.60
2022-10-25T10:45:27.538Z,5.50
2022-10-25T10:50:35.400Z,5.10
2022-10-25T10:55:51.137Z,4.70
2022-10-25T11:01:00.419Z,5.30
2022-10-25T11:06:09.456Z,6.10
2022-10-25T11:11:19.840Z,5.50
2022-10-25T11:16:41.585Z,5.90
2022-10-25T11:22:00.800Z,5.70
2022-10-25T11:27:20.350Z,7.40
2022-10-25T11:32:47.607Z,7.70
2022-10-25T11:38:04.296Z,5.90
2022-10-25T11:43:30.321Z,10.00
2022-10-25T11:48:52.648Z,6.90
2022-10-25T11:54:10.409Z,11.20
2022-10-25T11:59:25.467Z,13.40
2022-10-25T12:05:09.489Z,10.10
2022-10-25T12:10:25.438Z,17.80
2022-10-25T12:15:40.288Z,9.00
2022-10-25T12:20:50.125Z,10.00
2022-10-25T12:26:03.319Z,7.50
2022-10-25T12:31:17.171Z,8.10
2022-10-25T12:36:32.688Z,10.40
2022-10-25T12:41:41.768Z,8.50
2022-10-25T12:47:05.567Z,6.10
2022-10-25T12:52:30.773Z,8.10
2022-10-25T12:57:48.527Z,7.50
2022-10-25T13:03:45.436Z,5.80
2022-10-25T13:08:53.981Z,7.00
2022-10-25T13:14:02.010Z,8.10
2022-10-25T13:24:58.385Z,5.40
2022-10-25T13:30:20.387Z,6.90
2022-10-25T13:36:06.819Z,7.60
2022-10-25T13:41:21.961Z,7.50
2022-10-25T13:46:33.989Z,7.80
2022-10-25T13:51:43.595Z,4.50
2022-10-25T13:56:55.038Z,6.10
2022-10-25T14:02:17.118Z,6.60
2022-10-25T14:07:45.573Z,5.50
2022-10-25T14:12:56.641Z,5.40
2022-10-25T14:18:15.015Z,5.40
2022-10-25T14:23:26.051Z,9.60
2022-10-25T14:28:35.857Z,5.50
2022-10-25T14:33:50.227Z,11.70
2022-10-25T14:38:59.833Z,7.20
2022-10-25T14:44:25.553Z,7.10
2022-10-25T14:49:32.943Z,9.80
2022-10-25T14:54:42.060Z,7.90
2022-10-25T14:59:51.068Z,6.20
2022-10-25T15:05:00.529Z,7.00
2022-10-25T15:10:29.213Z,7.60
2022-10-25T15:21:18.972Z,7.80
2022-10-25T15:26:29.274Z,8.00
2022-10-25T15:31:36.139Z,5.20
2022-10-25T15:36:45.616Z,5.80
2022-10-25T15:41:52.653Z,5.40
2022-10-25T15:46:59.665Z,5.10
2022-10-25T15:52:07.072Z,4.40
2022-10-25T15:57:14.097Z,7.40
2022-10-25T16:02:26.381Z,6.50
2022-10-25T16:07:33.297Z,6.30
2022-10-25T16:12:40.899Z,6.10
2022-10-25T16:17:48.958Z,6.50
2022-10-25T16:22:56.981Z,11.00
2022-10-25T16:28:04.422Z,6.60
2022-10-25T16:33:11.362Z,8.10
2022-10-25T16:38:18.240Z,5.80
2022-10-25T16:43:25.506Z,8.10
2022-10-25T16:48:32.748Z,7.50
2022-10-25T16:53:40.523Z,8.50
2022-10-25T16:58:48.079Z,6.80
2022-10-25T17:03:55.922Z,7.60
2022-10-25T17:09:02.920Z,8.70
2022-10-25T17:14:10.917Z,10.80
2022-10-25T17:19:17.849Z,7.90
2022-10-25T17:24:25.457Z,12.40
2022-10-25T17:29:32.480Z,7.00
2022-10-25T17:34:39.533Z,11.20
2022-10-25T17:39:46.686Z,8.40
2022-10-25T17:44:53.875Z,9.20
2022-10-25T17:50:01.813Z,8.70
2022-10-25T17:55:11.950Z,11.80
2022-10-25T18:00:19.902Z,12.80
2022-10-25T18:05:27.775Z,21.00
2022-10-25T18:10:36.973Z,12.00
2022-10-25T18:15:45.769Z,13.50
2022-10-25T18:31:04.731Z,14.10
2022-10-25T18:36:15.454Z,13.00
2022-10-25T18:41:24.808Z,14.20
2022-10-25T18:46:32.847Z,13.90
2022-10-25T18:51:40.799Z,15.70
2022-10-25T18:56:47.707Z,17.80
2022-10-25T19:01:54.957Z,13.70
2022-10-25T19:07:02.260Z,17.10
2022-10-25T19:12:09.975Z,15.00
2022-10-25T19:17:17.515Z,14.40
2022-10-25T19:22:24.959Z,15.40
2022-10-25T19:27:31.920Z,15.50
2022-10-25T19:32:38.984Z,15.40
2022-10-25T19:37:46.865Z,15.40
2022-10-25T19:42:54.343Z,17.50
2022-10-25T19:48:01.747Z,13.70
2022-10-25T19:53:08.881Z,14.10
2022-10-25T19:58:15.979Z,14.40
2022-10-25T20:03:23.089Z,14.50
2022-10-25T20:08:32.961Z,16.40
2022-10-25T20:13:40.419Z,19.80
2022-10-25T20:18:47.567Z,15.10
2022-10-25T20:23:58.851Z,16.40
2022-10-25T20:29:07.694Z,14.70
2022-10-25T20:34:14.870Z,15.20
2022-10-25T20:39:21.744Z,16.30
2022-10-25T20:44:28.674Z,15.70
2022-10-25T20:49:35.544Z,16.60
2022-10-25T20:54:42.613Z,21.50
2022-10-25T20:59:49.613Z,18.80
2022-10-25T21:04:56.825Z,17.30
2022-10-25T21:10:03.841Z,20.10
2022-10-25T21:15:12.531Z,14.70
2022-10-25T21:20:19.887Z,22.20
2022-10-25T21:25:27.191Z,20.10
2022-10-25T21:30:35.130Z,20.20
2022-10-25T21:35:42.084Z,18.80
2022-10-25T21:40:49.509Z,22.50
2022-10-25T21:45:59.064Z,19.10
2022-10-25T21:51:06.599Z,20.60
2022-10-25T21:56:15.890Z,21.90
2022-10-25T22:01:24.961Z,21.20
2022-10-25T22:06:31.951Z,18.40
2022-10-25T22:16:45.213Z,20.20
2022-10-25T22:26:58.580Z,22.90
2022-10-25T22:37:11.434Z,24.80
2022-10-25T22:42:18.267Z,24.80
2022-10-25T22:52:31.541Z,27.90
2022-10-25T22:57:38.752Z,26.50
2022-10-25T23:02:45.993Z,24.90
2022-10-25T23:07:54.380Z,25.40
2022-10-25T23:13:01.248Z,25.80
2022-10-25T23:18:08.574Z,23.40
2022-10-25T23:23:15.870Z,23.30
2022-10-25T23:28:22.938Z,27.60
2022-10-25T23:33:30.336Z,28.10
2022-10-25T23:38:37.565Z,28.70
2022-10-25T23:43:44.805Z,27.00
2022-10-25T23:48:51.834Z,24.40
2022-10-25T23:53:58.998Z,25.70
2022-10-25T23:59:06.796Z,25.10
